Terminal Aerodrome Forecast
Issued by NWS Dodge City, KS

Home | Current Version | Previous Version | Text Only | Print | Product List | Glossary On
Versions: 1 2 3 4 5 6 7 8 9 10 11 12 13 14 15 16 17 18 19 20 21 22 23 24
000
FTUS43 KDDC 272338
TAFDDC
TAF
KDDC 272338Z 2800/2824 13018G24KT P6SM BKN060
     FM280200 14021KT P6SM VCSH BKN020
     FM280600 15010G18KT P6SM BKN008
     FM280900 20008KT P6SM SCT010
     FM281400 29011KT P6SM SCT100
     FM282300 33008KT P6SM BKN130=

USA.gov is the U.S. government's official web portal to all federal, state and local government web resources and services.